createdAt,value
2022-12-07T00:04:37.341Z,4.68
2022-12-07T00:09:40.052Z,5.07
2022-12-07T00:14:41.856Z,5.35
2022-12-07T00:19:43.643Z,3.80
2022-12-07T00:24:45.445Z,4.90
2022-12-07T00:29:47.461Z,4.68
2022-12-07T00:34:49.472Z,4.00
2022-12-07T00:39:51.250Z,5.22
2022-12-07T00:44:53.134Z,4.47
2022-12-07T00:49:54.925Z,5.47
2022-12-07T00:54:56.678Z,4.10
2022-12-07T00:59:59.084Z,4.40
2022-12-07T01:05:01.164Z,4.82
2022-12-07T01:10:03.251Z,4.65
2022-12-07T01:15:05.964Z,4.20
2022-12-07T01:20:08.405Z,4.43
2022-12-07T01:25:12.307Z,4.55
2022-12-07T01:30:14.543Z,3.92
2022-12-07T01:35:16.390Z,3.47
2022-12-07T01:40:18.967Z,4.20
2022-12-07T01:45:39.587Z,3.75
2022-12-07T01:50:43.489Z,3.78
2022-12-07T01:55:48.944Z,3.35
2022-12-07T02:00:51.124Z,3.95
2022-12-07T02:05:55.257Z,3.03
2022-12-07T02:10:57.305Z,3.33
2022-12-07T02:16:09.481Z,3.03
2022-12-07T02:21:17.525Z,3.30
2022-12-07T02:27:01.633Z,2.63
2022-12-07T02:32:31.986Z,3.78
2022-12-07T02:37:48.808Z,3.15
2022-12-07T02:42:56.366Z,3.47
2022-12-07T02:48:01.144Z,4.18
2022-12-07T02:53:02.884Z,4.28
2022-12-07T02:58:29.389Z,5.22
2022-12-07T03:03:32.112Z,6.03
2022-12-07T03:08:52.138Z,5.78
2022-12-07T03:14:15.039Z,4.82
2022-12-07T03:19:20.995Z,4.95
2022-12-07T03:24:28.535Z,4.55
2022-12-07T03:29:36.681Z,5.20
2022-12-07T03:34:54.922Z,5.07
2022-12-07T03:39:56.649Z,4.53
2022-12-07T03:44:58.762Z,4.50
2022-12-07T03:50:14.989Z,5.20
2022-12-07T03:55:36.298Z,4.65
2022-12-07T04:00:38.771Z,4.65
2022-12-07T04:05:41.065Z,4.47
2022-12-07T04:10:42.726Z,4.88
2022-12-07T04:15:44.507Z,4.88
2022-12-07T04:20:47.591Z,5.32
2022-12-07T04:25:49.864Z,3.90
2022-12-07T04:30:51.611Z,4.22
2022-12-07T04:35:53.286Z,4.88
2022-12-07T04:40:55.078Z,4.38
2022-12-07T04:45:56.800Z,4.45
2022-12-07T04:50:58.809Z,4.75
2022-12-07T04:56:02.091Z,4.20
2022-12-07T05:01:04.163Z,4.90
2022-12-07T05:06:11.792Z,3.92
2022-12-07T05:11:36.770Z,4.32
2022-12-07T05:16:39.765Z,3.53
2022-12-07T05:21:41.990Z,4.30
2022-12-07T05:26:44.963Z,3.75
2022-12-07T05:31:46.969Z,4.05
2022-12-07T05:36:48.857Z,3.70
2022-12-07T05:42:09.106Z,3.72
2022-12-07T05:47:15.243Z,3.25
2022-12-07T05:52:17.083Z,3.25
2022-12-07T05:57:19.279Z,3.22
2022-12-07T06:02:21.222Z,3.08
2022-12-07T06:07:23.171Z,3.00
2022-12-07T06:12:38.291Z,2.85
2022-12-07T06:17:40.227Z,2.58
2022-12-07T06:22:42.079Z,2.47
2022-12-07T06:27:43.924Z,2.67
2022-12-07T06:32:45.766Z,2.65
2022-12-07T06:37:47.514Z,2.63
2022-12-07T06:42:49.316Z,3.20
2022-12-07T06:47:54.256Z,3.05
2022-12-07T06:52:56.129Z,2.38
2022-12-07T06:57:58.020Z,2.55
2022-12-07T07:02:59.796Z,2.53
2022-12-07T07:13:23.656Z,2.58
2022-12-07T07:18:26.052Z,2.80
2022-12-07T07:23:27.986Z,2.78
2022-12-07T07:28:29.709Z,2.67
2022-12-07T07:33:31.461Z,2.65
2022-12-07T07:38:33.220Z,2.30
2022-12-07T07:43:34.982Z,2.28
2022-12-07T07:48:36.831Z,1.60
2022-12-07T07:53:38.684Z,1.80
2022-12-07T07:58:40.385Z,2.38
2022-12-07T08:03:42.215Z,2.40
2022-12-07T08:08:44.022Z,1.85
2022-12-07T08:13:48.817Z,2.80
2022-12-07T08:18:50.671Z,3.70
2022-12-07T08:23:52.497Z,3.22
2022-12-07T08:28:54.330Z,3.78
2022-12-07T08:33:56.151Z,3.53
2022-12-07T08:39:29.890Z,3.80
2022-12-07T08:44:19.833Z,4.18
2022-12-07T08:49:27.495Z,3.63
2022-12-07T08:54:30.017Z,4.00
2022-12-07T08:59:32.207Z,3.53
2022-12-07T09:04:33.978Z,3.85
2022-12-07T09:09:35.765Z,4.03
2022-12-07T09:14:37.610Z,2.72
2022-12-07T09:19:39.581Z,3.72
2022-12-07T09:24:41.396Z,3.17
2022-12-07T09:29:43.229Z,4.07
2022-12-07T09:34:45.268Z,3.55
2022-12-07T09:39:50.315Z,3.78
2022-12-07T09:45:08.312Z,3.67
2022-12-07T09:50:20.168Z,3.17
2022-12-07T09:55:29.161Z,3.67
2022-12-07T10:00:30.995Z,2.97
2022-12-07T10:05:45.951Z,2.42
2022-12-07T10:10:52.545Z,2.03
2022-12-07T10:16:02.131Z,2.97
2022-12-07T10:21:09.058Z,3.53
2022-12-07T10:26:34.374Z,2.75
2022-12-07T10:31:40.608Z,3.22
2022-12-07T10:36:42.503Z,2.90
2022-12-07T10:41:59.147Z,2.60
2022-12-07T10:47:14.160Z,3.70
2022-12-07T10:52:34.960Z,3.05
2022-12-07T10:57:42.457Z,2.75
2022-12-07T11:02:54.697Z,3.45
2022-12-07T11:08:21.332Z,2.78
2022-12-07T11:13:29.019Z,3.20
2022-12-07T11:18:44.969Z,3.30
2022-12-07T11:24:04.913Z,2.33
2022-12-07T11:29:25.954Z,3.05
2022-12-07T11:34:49.034Z,3.42
2022-12-07T11:40:12.999Z,2.63
2022-12-07T11:45:21.626Z,2.75
2022-12-07T11:50:26.423Z,2.90
2022-12-07T11:55:40.739Z,3.17
2022-12-07T12:00:43.351Z,3.45
2022-12-07T12:05:45.081Z,2.50
2022-12-07T12:11:04.524Z,2.33
2022-12-07T12:16:19.110Z,2.42
2022-12-07T12:21:29.472Z,3.08
2022-12-07T12:26:34.875Z,3.53
2022-12-07T12:31:42.475Z,2.90
2022-12-07T12:36:47.643Z,3.00
2022-12-07T12:41:49.416Z,2.90
2022-12-07T12:46:55.713Z,2.15
2022-12-07T12:52:06.950Z,2.28
2022-12-07T12:57:25.672Z,2.47
2022-12-07T13:02:29.583Z,2.47
2022-12-07T13:07:55.626Z,1.98
2022-12-07T13:13:05.877Z,2.60
2022-12-07T13:18:29.453Z,2.30
2022-12-07T13:23:44.781Z,2.80
2022-12-07T13:28:49.684Z,2.78
2022-12-07T13:33:51.677Z,2.53
2022-12-07T13:39:01.655Z,2.40
2022-12-07T13:44:11.888Z,2.72
2022-12-07T13:49:20.203Z,2.40
2022-12-07T13:54:22.747Z,2.00
2022-12-07T13:59:26.618Z,2.03
2022-12-07T14:04:37.400Z,1.80
2022-12-07T14:09:39.251Z,1.95
2022-12-07T14:14:50.035Z,1.65
2022-12-07T14:19:56.181Z,1.70
2022-12-07T14:25:02.585Z,2.28
2022-12-07T14:30:06.205Z,2.05
2022-12-07T14:35:13.977Z,1.40
2022-12-07T14:40:24.491Z,1.60
2022-12-07T14:45:26.221Z,1.30
2022-12-07T14:50:28.166Z,1.50
2022-12-07T14:55:32.412Z,1.55
2022-12-07T15:00:35.373Z,1.55
2022-12-07T15:05:38.363Z,3.22
2022-12-07T15:10:41.248Z,1.77
2022-12-07T15:15:44.272Z,1.52
2022-12-07T15:20:46.606Z,1.75
2022-12-07T15:25:49.571Z,1.65
2022-12-07T15:30:51.374Z,1.40
2022-12-07T15:35:53.286Z,1.92
2022-12-07T15:40:55.137Z,1.50
2022-12-07T15:45:57.230Z,2.03
2022-12-07T15:51:09.123Z,1.50
2022-12-07T15:56:10.839Z,2.28
2022-12-07T16:01:17.884Z,1.50
2022-12-07T16:06:20.471Z,1.83
2022-12-07T16:11:22.831Z,1.38
2022-12-07T16:16:24.959Z,2.65
2022-12-07T16:21:27.037Z,1.60
2022-12-07T16:26:28.845Z,1.60
2022-12-07T16:31:31.094Z,2.45
2022-12-07T16:41:54.890Z,1.90
2022-12-07T16:46:56.849Z,2.80
2022-12-07T16:52:18.916Z,1.80
2022-12-07T16:57:23.871Z,2.40
2022-12-07T17:02:26.242Z,2.38
2022-12-07T17:07:28.061Z,1.48
2022-12-07T17:12:29.804Z,1.42
2022-12-07T17:17:31.795Z,2.00
2022-12-07T17:22:33.551Z,1.42
2022-12-07T17:27:35.380Z,1.95
2022-12-07T17:32:37.569Z,1.83
2022-12-07T17:37:39.372Z,1.83
2022-12-07T17:42:41.238Z,1.92
2022-12-07T17:47:43.586Z,1.83
2022-12-07T17:53:20.692Z,1.92
2022-12-07T17:58:22.524Z,2.13
2022-12-07T18:03:24.332Z,1.90
2022-12-07T18:08:26.283Z,1.50
2022-12-07T18:13:36.902Z,1.80
2022-12-07T18:18:39.251Z,2.65
2022-12-07T18:23:42.213Z,2.03
2022-12-07T18:28:45.070Z,2.20
2022-12-07T18:33:48.396Z,2.30
2022-12-07T18:38:50.626Z,2.30
2022-12-07T18:43:52.390Z,1.33
2022-12-07T18:48:57.166Z,1.90
2022-12-07T18:54:01.346Z,1.52
2022-12-07T18:59:23.800Z,1.90
2022-12-07T19:04:30.629Z,1.92
2022-12-07T19:09:32.406Z,1.70
2022-12-07T19:14:36.941Z,1.80
2022-12-07T19:19:47.132Z,2.65
2022-12-07T19:24:53.954Z,2.63
2022-12-07T19:29:56.063Z,2.50
2022-12-07T19:34:57.855Z,2.17
2022-12-07T19:40:00.076Z,2.55
2022-12-07T19:45:03.574Z,2.38
2022-12-07T19:50:06.202Z,2.42
2022-12-07T19:55:08.251Z,2.65
2022-12-07T20:00:10.546Z,2.47
2022-12-07T20:05:12.827Z,2.00
2022-12-07T20:10:15.036Z,1.52
2022-12-07T20:15:19.007Z,2.30
2022-12-07T20:20:20.726Z,2.20
2022-12-07T20:25:22.476Z,1.98
2022-12-07T20:30:24.285Z,1.77
2022-12-07T20:35:29.614Z,1.20
2022-12-07T20:40:31.370Z,1.80
2022-12-07T20:45:33.163Z,2.03
2022-12-07T20:50:40.576Z,2.58
2022-12-07T20:55:44.165Z,2.03
2022-12-07T21:00:45.972Z,2.38
2022-12-07T21:05:50.965Z,2.00
2022-12-07T21:10:52.977Z,1.77
2022-12-07T21:15:55.605Z,1.85
2022-12-07T21:21:02.026Z,1.75
2022-12-07T21:26:19.385Z,2.40
2022-12-07T21:31:21.916Z,1.90
2022-12-07T21:36:26.344Z,1.83
2022-12-07T21:41:34.976Z,2.35
2022-12-07T21:46:37.956Z,2.17
2022-12-07T21:51:41.716Z,2.22
2022-12-07T21:56:45.326Z,2.60
2022-12-07T22:01:48.589Z,2.35
2022-12-07T22:06:51.764Z,2.05
2022-12-07T22:11:53.684Z,2.10
2022-12-07T22:16:55.876Z,2.33
2022-12-07T22:21:58.185Z,2.00
2022-12-07T22:26:59.912Z,1.98
2022-12-07T22:32:18.568Z,2.35
2022-12-07T22:37:23.559Z,2.28
2022-12-07T22:42:25.373Z,2.28
2022-12-07T22:47:27.135Z,2.40
2022-12-07T22:52:28.992Z,2.13
2022-12-07T22:57:31.144Z,2.53
2022-12-07T23:02:33.068Z,2.30
2022-12-07T23:07:34.954Z,2.05
2022-12-07T23:12:55.916Z,1.70
2022-12-07T23:17:57.621Z,2.33
2022-12-07T23:22:59.382Z,2.30
2022-12-07T23:28:01.177Z,2.35
2022-12-07T23:33:03.242Z,2.42
2022-12-07T23:38:05.055Z,2.42
2022-12-07T23:43:06.860Z,2.58
2022-12-07T23:48:08.649Z,2.22
2022-12-07T23:53:10.632Z,2.45
2022-12-07T23:58:12.445Z,2.53
